createdAt,value
2019-02-18T00:05:42.751Z,99988.69
2019-02-18T00:19:34.372Z,99984.95
2019-02-18T00:22:04.680Z,99985.28
2019-02-18T00:24:34.953Z,99985.58
2019-02-18T00:35:44.628Z,99970.17
2019-02-18T00:38:53.709Z,99973.91
2019-02-18T00:41:42.888Z,99984.61
2019-02-18T00:44:13.669Z,99978.13
2019-02-18T00:47:14.744Z,99991.27
2019-02-18T00:49:45.498Z,99982.01
2019-02-18T00:55:56.332Z,99992.73
2019-02-18T01:04:06.732Z,99988.81
2019-02-18T01:07:16.076Z,99985.59
2019-02-18T01:10:18.327Z,99989.48
2019-02-18T01:12:49.164Z,99986.53
2019-02-18T01:15:58.291Z,99986.53
2019-02-18T01:18:47.274Z,99985.23
2019-02-18T01:21:56.332Z,99980.83
2019-02-18T01:25:05.472Z,99979.88
2019-02-18T01:27:54.628Z,99977.42
2019-02-18T01:30:55.353Z,99982.28
2019-02-18T01:33:36.638Z,99978.20
2019-02-18T01:36:07.492Z,99977.25
2019-02-18T01:38:38.059Z,99979.99
2019-02-18T01:41:39.225Z,99975.95
2019-02-18T01:44:20.940Z,99970.91
2019-02-18T01:47:30.082Z,99967.65
2019-02-18T02:10:26.797Z,99950.38
2019-02-18T02:13:35.925Z,99950.38
2019-02-18T02:16:49.619Z,99948.75
2019-02-18T02:25:01.232Z,99937.22
2019-02-18T02:28:02.223Z,99934.14
2019-02-18T02:30:42.644Z,99934.80
2019-02-18T02:33:43.016Z,99931.40
2019-02-18T02:36:43.850Z,99926.51
2019-02-18T02:39:44.352Z,99921.17
2019-02-18T02:42:33.471Z,99925.36
2019-02-18T02:45:42.562Z,99928.28
2019-02-18T02:48:31.570Z,99923.39
2019-02-18T02:51:40.662Z,99921.61
2019-02-18T02:57:12.550Z,99915.94
2019-02-18T03:00:21.738Z,99916.72
2019-02-18T03:06:23.199Z,99912.53
2019-02-18T03:09:23.521Z,99909.76
2019-02-18T03:14:51.586Z,99899.91
2019-02-18T03:26:23.933Z,99899.50
2019-02-18T03:40:35.709Z,99914.06
2019-02-18T03:46:08.920Z,99908.39
2019-02-18T03:48:39.524Z,99913.73
2019-02-18T03:54:09.742Z,99906.73
2019-02-18T03:57:18.994Z,99907.54
2019-02-18T04:00:09.731Z,99906.72
2019-02-18T04:03:18.998Z,99910.58
2019-02-18T04:05:49.404Z,99915.61
2019-02-18T04:08:43.067Z,99914.27
2019-02-18T04:14:13.269Z,99918.48
2019-02-18T04:17:02.380Z,99912.01
2019-02-18T04:19:32.892Z,99916.19
2019-02-18T04:22:23.277Z,99919.25
2019-02-18T04:25:12.338Z,99916.50
2019-02-18T04:28:21.426Z,99912.30
2019-02-18T04:30:51.899Z,99912.92
2019-02-18T04:33:22.444Z,99916.17
2019-02-18T04:47:41.978Z,99913.59
2019-02-18T04:50:13.018Z,99912.34
2019-02-18T04:56:14.932Z,99914.69
2019-02-18T04:58:56.921Z,99917.29
2019-02-18T05:01:29.103Z,99912.77
2019-02-18T05:04:38.203Z,99918.29
2019-02-18T05:07:47.278Z,99924.59
2019-02-18T05:10:43.116Z,99915.52
2019-02-18T05:13:52.420Z,99824.75
2019-02-18T05:17:01.532Z,99820.87
2019-02-18T05:19:52.029Z,99910.02
2019-02-18T05:29:11.430Z,99914.73
2019-02-18T05:31:41.806Z,99910.51
2019-02-18T05:34:12.072Z,99911.47
2019-02-18T05:36:42.351Z,99914.06
2019-02-18T05:39:17.830Z,99909.72
2019-02-18T05:52:51.585Z,99823.55
2019-02-18T05:58:02.507Z,99908.76
2019-02-18T06:00:53.008Z,99926.62
2019-02-18T06:06:24.431Z,99907.46
2019-02-18T06:08:54.679Z,99908.91
2019-02-18T06:11:44.273Z,99907.95
2019-02-18T06:14:14.947Z,99905.20
2019-02-18T06:16:45.535Z,99909.42
2019-02-18T06:19:17.112Z,99910.54
2019-02-18T06:24:48.762Z,99907.28
2019-02-18T06:27:37.998Z,99909.25
2019-02-18T06:30:28.433Z,99907.13
2019-02-18T06:33:18.015Z,99911.98
2019-02-18T06:42:11.645Z,99917.32
2019-02-18T06:45:12.566Z,99927.36
2019-02-18T06:48:13.407Z,99925.73
2019-02-18T06:50:55.438Z,99927.37
2019-02-18T07:00:13.909Z,99928.52
2019-02-18T07:03:03.726Z,99943.62
2019-02-18T07:05:44.168Z,99940.07
2019-02-18T07:08:32.058Z,99941.22
2019-02-18T07:11:39.734Z,99935.70
2019-02-18T07:14:10.257Z,99939.92
2019-02-18T07:16:40.602Z,99942.67
2019-02-18T07:19:11.333Z,99940.44
2019-02-18T07:21:41.667Z,99947.58
2019-02-18T07:24:12.015Z,99948.23
2019-02-18T07:26:59.884Z,99857.98
2019-02-18T07:29:30.790Z,99939.81
2019-02-18T07:32:39.924Z,99943.06
2019-02-18T07:35:29.123Z,99942.57
2019-02-18T07:38:10.842Z,99939.80
2019-02-18T07:41:01.261Z,99937.22
2019-02-18T07:43:52.281Z,99939.34
2019-02-18T07:46:22.788Z,99935.75
2019-02-18T07:48:53.345Z,99935.56
2019-02-18T07:51:23.597Z,99932.97
2019-02-18T07:53:53.818Z,99933.61
2019-02-18T07:56:23.959Z,99934.73
2019-02-18T08:13:34.933Z,99932.23
2019-02-18T08:16:44.117Z,99924.39
2019-02-18T08:19:15.756Z,99923.08
2019-02-18T08:21:46.309Z,99916.84
2019-02-18T08:33:41.637Z,99922.67
2019-02-18T08:36:31.902Z,99915.61
2019-02-18T08:39:10.844Z,99914.27
2019-02-18T08:41:41.343Z,99912.55
2019-02-18T08:44:26.201Z,99905.38
2019-02-18T08:50:28.941Z,99901.00
2019-02-18T08:53:37.579Z,99901.87
2019-02-18T08:56:47.063Z,99899.66
2019-02-18T09:02:38.083Z,99896.66
2019-02-18T09:10:50.882Z,99895.48
2019-02-18T09:13:21.186Z,99893.42
2019-02-18T09:16:00.128Z,99890.12
2019-02-18T09:18:29.099Z,99891.09
2019-02-18T09:20:59.537Z,99884.33
2019-02-18T09:23:40.710Z,99885.34
2019-02-18T09:26:11.741Z,99887.00
2019-02-18T09:28:42.009Z,99879.89
2019-02-18T09:34:26.010Z,99880.87
2019-02-18T09:37:06.952Z,99880.87
2019-02-18T09:39:48.291Z,99862.78
2019-02-18T09:42:49.099Z,99862.78
2019-02-18T09:45:31.213Z,99869.00
2019-02-18T09:48:08.011Z,99862.22
2019-02-18T09:50:42.467Z,99864.59
2019-02-18T09:53:14.525Z,99863.72
2019-02-18T09:55:44.888Z,99864.15
2019-02-18T09:58:15.315Z,99862.58
2019-02-18T10:00:57.027Z,99858.00
2019-02-18T10:03:38.559Z,99858.53
2019-02-18T10:06:27.681Z,99859.58
2019-02-18T10:09:08.808Z,99858.98
2019-02-18T10:11:39.311Z,99851.34
2019-02-18T10:19:58.183Z,99848.99
2019-02-18T10:25:07.850Z,99767.22
2019-02-18T10:27:48.235Z,99847.20
2019-02-18T10:30:20.790Z,99841.41
2019-02-18T10:33:30.775Z,99842.67
2019-02-18T10:36:01.310Z,99838.38
2019-02-18T10:38:31.901Z,99833.87
2019-02-18T10:41:07.013Z,99836.14
2019-02-18T10:43:54.944Z,99833.34
2019-02-18T10:46:26.457Z,99830.16
2019-02-18T10:48:56.876Z,99831.09
2019-02-18T10:51:27.496Z,99835.05
2019-02-18T10:54:36.653Z,99834.41
2019-02-18T10:57:07.022Z,99831.73
2019-02-18T10:59:37.452Z,99834.77
2019-02-18T11:02:19.245Z,99827.77
2019-02-18T11:04:49.747Z,99822.23
2019-02-18T11:10:33.601Z,99814.87
2019-02-18T11:13:25.014Z,99809.84
2019-02-18T11:19:28.272Z,99799.73
2019-02-18T11:25:16.743Z,99783.33
2019-02-18T11:28:26.687Z,99775.92
2019-02-18T11:31:15.801Z,99771.53
2019-02-18T11:34:26.656Z,99762.33
2019-02-18T11:39:59.955Z,99762.75
2019-02-18T11:42:31.006Z,99763.08
2019-02-18T11:45:02.356Z,99755.93
2019-02-18T11:47:33.077Z,99747.02
2019-02-18T11:50:03.660Z,99747.75
2019-02-18T11:52:34.336Z,99743.74
2019-02-18T11:55:05.072Z,99738.99
2019-02-18T11:57:35.620Z,99735.30
2019-02-18T12:00:19.444Z,99730.69
2019-02-18T12:02:50.473Z,99726.14
2019-02-18T12:05:39.691Z,99729.30
2019-02-18T12:08:10.721Z,99733.02
2019-02-18T12:10:42.078Z,99724.22
2019-02-18T12:13:33.026Z,99717.92
2019-02-18T12:16:03.835Z,99714.94
2019-02-18T12:18:37.041Z,99712.19
2019-02-18T12:21:07.583Z,99706.31
2019-02-18T12:23:38.974Z,99704.89
2019-02-18T12:26:09.371Z,99702.41
2019-02-18T12:28:39.875Z,99699.83
2019-02-18T12:31:14.210Z,99696.75
2019-02-18T12:33:48.254Z,99685.12
2019-02-18T12:36:19.572Z,99674.03
2019-02-18T12:38:51.930Z,99671.92
2019-02-18T12:41:22.894Z,99657.48
2019-02-18T12:43:55.281Z,99653.36
2019-02-18T12:46:26.019Z,99650.77
2019-02-18T12:48:57.114Z,99643.70
2019-02-18T12:51:29.193Z,99647.27
2019-02-18T12:54:05.003Z,99639.44
2019-02-18T12:56:34.863Z,99636.80
2019-02-18T12:59:05.099Z,99634.55
2019-02-18T13:01:35.853Z,99627.02
2019-02-18T13:04:06.430Z,99620.75
2019-02-18T13:06:36.989Z,99625.09
2019-02-18T13:09:08.288Z,99619.37
2019-02-18T13:11:39.366Z,99620.50
2019-02-18T13:14:09.798Z,99614.20
2019-02-18T13:16:40.317Z,99608.43
2019-02-18T13:19:10.813Z,99605.86
2019-02-18T13:21:43.541Z,99600.84
2019-02-18T13:26:53.455Z,99587.98
2019-02-18T13:29:25.759Z,99591.72
2019-02-18T13:31:56.833Z,99589.34
2019-02-18T13:34:29.984Z,99584.35
2019-02-18T13:37:05.299Z,99512.42
2019-02-18T13:39:36.758Z,99583.27
2019-02-18T13:42:08.028Z,99575.60
2019-02-18T13:44:39.092Z,99574.59
2019-02-18T13:47:09.991Z,99571.66
2019-02-18T13:49:42.106Z,99570.58
2019-02-18T13:52:14.007Z,99571.41
2019-02-18T14:01:34.123Z,99568.33
2019-02-18T14:04:09.405Z,99568.36
2019-02-18T14:06:39.437Z,99505.97
2019-02-18T14:12:53.553Z,99568.38
2019-02-18T14:22:13.815Z,99557.02
2019-02-18T14:24:44.661Z,99558.02
2019-02-18T14:27:15.233Z,99556.45
2019-02-18T14:30:23.117Z,99557.55
2019-02-18T14:32:53.538Z,99555.73
2019-02-18T14:35:24.156Z,99562.08
2019-02-18T14:37:57.768Z,99558.08
2019-02-18T14:40:48.458Z,99551.72
2019-02-18T14:43:25.052Z,99552.83
2019-02-18T14:46:15.742Z,99545.36
2019-02-18T14:48:58.655Z,99546.42
2019-02-18T14:51:48.701Z,99538.44
2019-02-18T14:54:20.566Z,99534.95
2019-02-18T14:57:04.324Z,99464.84
2019-02-18T15:02:24.804Z,99538.25
2019-02-18T15:08:22.916Z,99538.98
2019-02-18T15:10:53.823Z,99538.89
2019-02-18T15:16:29.530Z,99533.77
2019-02-18T15:19:03.665Z,99529.70
2019-02-18T15:21:38.535Z,99527.75
2019-02-18T15:24:12.298Z,99523.17
2019-02-18T15:26:44.155Z,99521.66
2019-02-18T15:29:17.088Z,99521.42
2019-02-18T15:31:48.279Z,99521.00
2019-02-18T15:34:21.757Z,99517.89
2019-02-18T15:36:52.213Z,99527.76
2019-02-18T15:39:31.255Z,99525.41
2019-02-18T15:42:07.275Z,99521.69
2019-02-18T15:44:41.977Z,99520.12
2019-02-18T15:47:23.376Z,99518.80
2019-02-18T15:49:57.037Z,99518.55
2019-02-18T15:52:34.611Z,99519.29
2019-02-18T15:55:19.284Z,99517.98
2019-02-18T15:58:08.726Z,99517.45
2019-02-18T16:00:52.790Z,99518.44
2019-02-18T16:03:43.394Z,99518.05
2019-02-18T16:06:54.624Z,99525.30
2019-02-18T16:09:37.087Z,99513.66
2019-02-18T16:12:09.147Z,99507.85
2019-02-18T16:27:09.812Z,99513.80
2019-02-18T16:30:05.834Z,99517.58
2019-02-18T16:33:15.111Z,99523.09
2019-02-18T16:35:53.835Z,99521.16
2019-02-18T16:38:31.374Z,99526.94
2019-02-18T16:41:04.533Z,99523.38
2019-02-18T16:43:39.830Z,99518.41
2019-02-18T16:46:12.309Z,99515.22
2019-02-18T16:48:43.422Z,99524.11
2019-02-18T16:51:22.043Z,99518.47
2019-02-18T16:53:53.407Z,99521.25
2019-02-18T16:56:25.787Z,99518.27
2019-02-18T16:59:03.445Z,99512.92
2019-02-18T17:01:37.529Z,99513.50
2019-02-18T17:04:08.836Z,99514.75
2019-02-18T17:06:40.553Z,99515.27
2019-02-18T17:09:15.559Z,99517.73
2019-02-18T17:11:48.377Z,99515.56
2019-02-18T17:14:19.920Z,99516.88
2019-02-18T17:16:50.563Z,99520.36
2019-02-18T17:19:21.002Z,99435.27
2019-02-18T17:21:52.273Z,99520.66
2019-02-18T17:24:22.926Z,99516.88
2019-02-18T17:26:54.162Z,99520.14
2019-02-18T17:29:27.524Z,99516.14
2019-02-18T17:31:55.650Z,99447.30
2019-02-18T17:34:26.540Z,99511.38
2019-02-18T17:36:59.134Z,99512.70
2019-02-18T17:39:40.460Z,99510.22
2019-02-18T17:42:30.190Z,99507.96
2019-02-18T17:45:02.837Z,99512.95
2019-02-18T17:47:34.057Z,99512.30
2019-02-18T17:50:05.357Z,99508.51
2019-02-18T17:52:36.846Z,99507.47
2019-02-18T17:55:08.317Z,99509.94
2019-02-18T17:57:39.062Z,99505.25
2019-02-18T18:00:14.995Z,99505.97
2019-02-18T18:02:45.751Z,99504.75
2019-02-18T18:05:16.785Z,99512.68
2019-02-18T18:07:47.835Z,99511.37
2019-02-18T18:10:18.612Z,99508.44
2019-02-18T18:12:49.032Z,99510.20
2019-02-18T18:15:19.676Z,99503.99
2019-02-18T18:17:50.026Z,99504.20
2019-02-18T18:20:20.580Z,99503.45
2019-02-18T18:22:50.908Z,99503.94
2019-02-18T18:25:21.125Z,99499.75
2019-02-18T18:27:51.404Z,99494.75
2019-02-18T18:30:21.977Z,99488.55
2019-02-18T18:32:52.282Z,99486.41
2019-02-18T18:35:22.821Z,99484.49
2019-02-18T18:38:32.426Z,99488.77
2019-02-18T18:47:24.354Z,99482.25
2019-02-18T18:52:59.066Z,99482.09
2019-02-18T18:55:29.243Z,99477.18
2019-02-18T18:58:02.239Z,99469.35
2019-02-18T19:00:34.611Z,99473.95
2019-02-18T19:03:05.422Z,99474.05
2019-02-18T19:05:35.709Z,99475.46
2019-02-18T19:08:06.388Z,99475.83
2019-02-18T19:10:36.862Z,99479.36
2019-02-18T19:13:10.859Z,99479.92
2019-02-18T19:15:49.294Z,99475.29
2019-02-18T19:18:17.608Z,99475.59
2019-02-18T19:20:51.304Z,99468.23
2019-02-18T19:23:33.791Z,99475.13
2019-02-18T19:26:04.468Z,99471.53
2019-02-18T19:40:28.699Z,99465.98
2019-02-18T19:43:00.350Z,99470.06
2019-02-18T19:45:32.038Z,99460.61
2019-02-18T19:48:03.780Z,99460.56
2019-02-18T19:50:35.245Z,99457.45
2019-02-18T19:53:08.154Z,99461.52
2019-02-18T19:55:40.650Z,99457.20
2019-02-18T19:58:14.089Z,99455.33
2019-02-18T20:01:15.805Z,99456.76
2019-02-18T20:09:50.069Z,99463.24
2019-02-18T20:12:20.754Z,99467.23
2019-02-18T20:14:52.015Z,99466.41
2019-02-18T20:17:22.730Z,99463.84
2019-02-18T20:19:53.571Z,99457.24
2019-02-18T20:22:25.582Z,99452.08
2019-02-18T20:28:17.091Z,99448.14
2019-02-18T20:30:48.274Z,99443.14
2019-02-18T20:39:07.119Z,99443.74
2019-02-18T20:42:17.050Z,99446.39
2019-02-18T20:44:49.598Z,99443.41
2019-02-18T20:47:41.124Z,99443.66
2019-02-18T20:50:31.809Z,99443.95
2019-02-18T20:53:04.435Z,99418.69
2019-02-18T20:55:35.780Z,99445.73
2019-02-18T20:58:06.938Z,99447.23
2019-02-18T21:12:46.279Z,99451.84
2019-02-18T21:24:07.423Z,99435.77
2019-02-18T21:26:57.446Z,99435.77
2019-02-18T21:29:30.602Z,99444.01
2019-02-18T21:46:56.210Z,99446.92
2019-02-18T21:52:37.697Z,99426.90
2019-02-18T21:57:57.071Z,99443.85
2019-02-18T22:00:33.541Z,99443.85
2019-02-18T22:03:05.610Z,99400.94
2019-02-18T22:05:35.957Z,99400.94
2019-02-18T22:08:07.333Z,99437.03
2019-02-18T22:14:03.609Z,99451.16
2019-02-18T22:16:35.961Z,99447.78
2019-02-18T22:19:06.926Z,99451.44
2019-02-18T22:21:37.886Z,99448.52
2019-02-18T22:24:27.611Z,99446.86
2019-02-18T22:33:22.067Z,99444.95
2019-02-18T22:35:53.608Z,99442.30
2019-02-18T22:38:27.242Z,99442.75
2019-02-18T22:40:58.911Z,99449.25
2019-02-18T22:43:31.164Z,99344.64
2019-02-18T22:46:03.467Z,99433.11
2019-02-18T22:48:35.318Z,99432.57
2019-02-18T22:51:09.276Z,99433.64
2019-02-18T22:53:41.177Z,99428.69
2019-02-18T22:56:13.481Z,99430.88
2019-02-18T23:04:37.267Z,99444.03
2019-02-18T23:07:19.729Z,99447.37
2019-02-18T23:10:09.762Z,99447.19
2019-02-18T23:15:51.377Z,99440.48
2019-02-18T23:18:34.772Z,99439.44
2019-02-18T23:24:26.242Z,99438.88
2019-02-18T23:27:35.703Z,99431.53
2019-02-18T23:30:09.857Z,99414.66
2019-02-18T23:32:59.096Z,99434.08
2019-02-18T23:35:30.532Z,99433.27
2019-02-18T23:38:39.743Z,99428.48
2019-02-18T23:55:01.934Z,99439.39
2019-02-18T23:57:32.368Z,99347.39
